createdAt,value
2019-02-06T00:00:35.861Z,99.99
2019-02-06T00:01:35.799Z,99.99
2019-02-06T00:02:35.723Z,99.99
2019-02-06T00:03:35.730Z,99.99
2019-02-06T00:04:35.605Z,99.99
2019-02-06T00:05:35.560Z,99.99
2019-02-06T00:06:35.571Z,99.99
2019-02-06T00:07:35.437Z,99.99
2019-02-06T00:08:35.380Z,99.99
2019-02-06T00:09:35.319Z,99.99
2019-02-06T00:10:35.279Z,99.99
2019-02-06T00:11:35.384Z,99.99
2019-02-06T00:12:35.194Z,99.99
2019-02-06T00:13:35.103Z,99.99
2019-02-06T00:14:35.031Z,99.99
2019-02-06T00:15:34.996Z,99.99
2019-02-06T00:16:34.947Z,99.99
2019-02-06T00:17:34.870Z,99.99
2019-02-06T00:18:34.838Z,99.99
2019-02-06T00:19:34.750Z,99.99
2019-02-06T00:20:34.751Z,99.99
2019-02-06T00:21:34.668Z,99.99
2019-02-06T00:22:34.571Z,99.99
2019-02-06T00:23:34.522Z,99.99
2019-02-06T00:24:34.466Z,99.99
2019-02-06T00:25:34.405Z,99.99
2019-02-06T00:26:34.429Z,99.99
2019-02-06T00:27:34.288Z,99.99
2019-02-06T00:28:34.228Z,99.99
2019-02-06T00:29:34.182Z,99.99
2019-02-06T00:30:34.119Z,99.99
2019-02-06T00:31:34.124Z,99.99
2019-02-06T00:32:34.005Z,99.99
2019-02-06T00:33:33.948Z,99.99
2019-02-06T00:34:33.886Z,99.99
2019-02-06T00:35:33.846Z,99.99
2019-02-06T00:36:33.799Z,99.99
2019-02-06T00:37:33.716Z,99.99
2019-02-06T00:38:33.659Z,99.99
2019-02-06T00:39:33.598Z,99.99
2019-02-06T00:40:33.537Z,99.99
2019-02-06T00:41:33.516Z,99.99
2019-02-06T00:42:33.431Z,99.99
2019-02-06T00:43:33.372Z,99.99
2019-02-06T00:44:33.371Z,99.99
2019-02-06T00:45:33.261Z,99.99
2019-02-06T00:46:33.225Z,99.99
2019-02-06T00:47:33.190Z,99.99
2019-02-06T00:48:33.085Z,99.99
2019-02-06T00:49:33.029Z,99.99
2019-02-06T00:50:32.973Z,99.99
2019-02-06T00:51:32.917Z,99.99
2019-02-06T00:52:32.877Z,99.99
2019-02-06T00:53:32.793Z,99.99
2019-02-06T00:54:32.748Z,99.99
2019-02-06T00:55:32.752Z,99.99
2019-02-06T00:56:32.623Z,99.99
2019-02-06T00:57:32.620Z,99.99
2019-02-06T00:58:32.512Z,99.99
2019-02-06T00:59:32.500Z,99.99
2019-02-06T01:00:32.403Z,99.99
2019-02-06T01:01:32.338Z,99.99
2019-02-06T01:02:32.311Z,99.99
2019-02-06T01:03:32.220Z,99.99
2019-02-06T01:04:32.175Z,99.99
2019-02-06T01:05:38.402Z,99.99
2019-02-06T01:06:32.054Z,99.99
2019-02-06T01:07:32.021Z,99.99
2019-02-06T01:08:31.938Z,99.99
2019-02-06T01:09:31.887Z,99.99
2019-02-06T01:10:31.819Z,99.99
2019-02-06T01:11:31.769Z,99.99
2019-02-06T01:12:31.740Z,99.99
2019-02-06T01:13:31.660Z,99.99
2019-02-06T01:14:31.597Z,99.99
2019-02-06T01:15:31.535Z,99.99
2019-02-06T01:16:31.496Z,99.99
2019-02-06T01:17:31.459Z,99.99
2019-02-06T01:18:31.366Z,99.99
2019-02-06T01:19:31.309Z,99.99
2019-02-06T01:20:31.254Z,99.99
2019-02-06T01:21:31.325Z,99.99
2019-02-06T01:22:31.174Z,99.99
2019-02-06T01:23:31.090Z,99.99
2019-02-06T01:24:31.020Z,99.99
2019-02-06T01:25:31.056Z,99.99
2019-02-06T01:26:30.913Z,99.99
2019-02-06T01:27:30.873Z,99.99
2019-02-06T01:28:30.900Z,99.99
2019-02-06T01:29:30.754Z,99.99
2019-02-06T01:30:30.679Z,99.99
2019-02-06T01:31:30.693Z,99.99
2019-02-06T01:32:30.589Z,99.99
2019-02-06T01:33:30.505Z,99.99
2019-02-06T01:34:30.453Z,99.99
2019-02-06T01:35:30.403Z,99.99
2019-02-06T01:36:30.344Z,99.99
2019-02-06T01:37:30.305Z,99.99
2019-02-06T01:38:30.218Z,99.99
2019-02-06T01:39:30.171Z,99.99
2019-02-06T01:40:30.108Z,99.99
2019-02-06T01:41:30.046Z,99.99
2019-02-06T01:42:30.031Z,99.99
2019-02-06T01:43:29.945Z,99.99
2019-02-06T01:44:29.888Z,99.99
2019-02-06T01:45:29.822Z,99.99
2019-02-06T01:46:29.774Z,99.99
2019-02-06T01:47:29.742Z,99.99
2019-02-06T01:48:29.655Z,99.99
2019-02-06T01:49:29.591Z,99.99
2019-02-06T01:50:29.542Z,99.99
2019-02-06T01:51:29.573Z,99.99
2019-02-06T01:52:29.467Z,99.99
2019-02-06T01:53:29.362Z,99.99
2019-02-06T01:54:29.301Z,99.99
2019-02-06T01:55:29.242Z,99.99
2019-02-06T01:56:29.183Z,99.99
2019-02-06T01:57:29.161Z,99.99
2019-02-06T01:58:29.070Z,99.99
2019-02-06T01:59:29.016Z,99.99
2019-02-06T02:00:28.954Z,99.99
2019-02-06T02:01:28.904Z,99.99
2019-02-06T02:02:28.891Z,99.99
2019-02-06T02:03:28.786Z,99.99
2019-02-06T02:04:28.724Z,99.99
2019-02-06T02:05:28.680Z,99.99
2019-02-06T02:06:28.613Z,99.99
2019-02-06T02:07:28.594Z,99.99
2019-02-06T02:08:28.502Z,99.99
2019-02-06T02:09:28.451Z,99.99
2019-02-06T02:10:28.378Z,99.99
2019-02-06T02:11:28.323Z,99.99
2019-02-06T02:12:28.267Z,99.99
2019-02-06T02:13:28.234Z,99.99
2019-02-06T02:14:28.150Z,99.99
2019-02-06T02:15:28.094Z,99.99
2019-02-06T02:16:28.034Z,99.99
2019-02-06T02:17:27.984Z,99.99
2019-02-06T02:18:27.945Z,99.99
2019-02-06T02:19:27.861Z,99.99
2019-02-06T02:20:27.805Z,99.99
2019-02-06T02:21:27.753Z,99.99
2019-02-06T02:22:27.708Z,99.99
2019-02-06T02:23:27.663Z,99.99
2019-02-06T02:24:27.572Z,99.99
2019-02-06T02:25:27.535Z,99.99
2019-02-06T02:26:27.466Z,99.99
2019-02-06T02:27:27.410Z,99.99
2019-02-06T02:28:27.390Z,99.99
2019-02-06T02:29:27.303Z,99.99
2019-02-06T02:30:27.240Z,99.99
2019-02-06T02:31:27.181Z,99.99
2019-02-06T02:32:27.121Z,99.99
2019-02-06T02:33:27.102Z,99.99
2019-02-06T02:34:27.026Z,99.99
2019-02-06T02:35:26.941Z,99.99
2019-02-06T02:36:26.951Z,99.99
2019-02-06T02:37:26.838Z,99.99
2019-02-06T02:38:26.870Z,99.99
2019-02-06T02:39:26.709Z,99.99
2019-02-06T02:40:26.657Z,99.99
2019-02-06T02:41:26.609Z,99.99
2019-02-06T02:42:26.544Z,99.99
2019-02-06T02:43:26.509Z,99.99
2019-02-06T02:44:26.423Z,99.99
2019-02-06T02:45:26.396Z,99.99
2019-02-06T02:46:26.307Z,99.99
2019-02-06T02:47:26.259Z,99.99
2019-02-06T02:48:26.219Z,99.99
2019-02-06T02:49:26.157Z,99.99
2019-02-06T02:50:26.106Z,99.99
2019-02-06T02:51:26.020Z,99.99
2019-02-06T02:52:25.962Z,99.99
2019-02-06T02:53:25.964Z,99.99
2019-02-06T02:54:25.850Z,99.99
2019-02-06T02:55:25.834Z,99.99
2019-02-06T02:56:25.731Z,99.99
2019-02-06T02:57:25.683Z,99.99
2019-02-06T02:58:25.619Z,99.99
2019-02-06T02:59:25.635Z,99.99
2019-02-06T03:00:25.502Z,99.99
2019-02-06T03:01:25.460Z,99.99
2019-02-06T03:02:25.388Z,99.99
2019-02-06T03:03:25.353Z,99.99
2019-02-06T03:04:25.309Z,99.99
2019-02-06T03:05:25.227Z,99.99
2019-02-06T03:06:28.145Z,99.99
2019-02-06T03:07:25.095Z,99.99
2019-02-06T03:08:25.044Z,99.99
2019-02-06T03:09:25.041Z,99.99
2019-02-06T03:10:24.925Z,99.99
2019-02-06T03:11:24.876Z,99.99
2019-02-06T03:12:24.813Z,99.99
2019-02-06T03:13:24.750Z,99.99
2019-02-06T03:14:24.720Z,99.99
2019-02-06T03:15:24.637Z,99.99
2019-02-06T03:16:24.577Z,99.99
2019-02-06T03:17:24.524Z,99.99
2019-02-06T03:18:24.481Z,99.99
2019-02-06T03:19:24.440Z,99.99
2019-02-06T03:20:24.359Z,99.99
2019-02-06T03:21:24.313Z,99.99
2019-02-06T03:22:24.247Z,99.99
2019-02-06T03:23:24.182Z,99.99
2019-02-06T03:24:24.146Z,99.99
2019-02-06T03:25:24.057Z,99.99
2019-02-06T03:26:24.004Z,99.99
2019-02-06T03:27:23.966Z,99.99
2019-02-06T03:28:23.887Z,99.99
2019-02-06T03:29:23.858Z,99.99
2019-02-06T03:30:23.777Z,99.99
2019-02-06T03:31:23.711Z,99.99
2019-02-06T03:32:23.707Z,99.99
2019-02-06T03:33:23.611Z,99.99
2019-02-06T03:34:23.565Z,99.99
2019-02-06T03:35:23.483Z,99.99
2019-02-06T03:36:23.428Z,99.99
2019-02-06T03:37:23.364Z,99.99
2019-02-06T03:38:23.326Z,99.99
2019-02-06T03:39:23.276Z,99.99
2019-02-06T03:40:23.194Z,99.99
2019-02-06T03:41:23.139Z,99.99
2019-02-06T03:42:23.078Z,99.99
2019-02-06T03:43:23.028Z,99.99
2019-02-06T03:44:22.992Z,99.99
2019-02-06T03:45:22.897Z,99.99
2019-02-06T03:46:22.849Z,99.99
2019-02-06T03:47:22.791Z,99.99
2019-02-06T03:48:22.727Z,99.99
2019-02-06T03:49:22.708Z,99.99
2019-02-06T03:50:22.640Z,99.99
2019-02-06T03:51:22.571Z,99.99
2019-02-06T03:52:22.630Z,99.99
2019-02-06T03:53:22.494Z,99.99
2019-02-06T03:54:22.420Z,99.99
2019-02-06T03:55:22.337Z,99.99
2019-02-06T03:56:22.273Z,99.99
2019-02-06T03:57:22.221Z,99.99
2019-02-06T03:58:22.165Z,99.99
2019-02-06T03:59:22.124Z,99.99
2019-02-06T04:00:22.059Z,99.99
2019-02-06T04:01:22.081Z,99.99
2019-02-06T04:02:21.931Z,99.99
2019-02-06T04:03:21.867Z,99.99
2019-02-06T04:04:21.844Z,99.99
2019-02-06T04:05:21.754Z,99.99
2019-02-06T04:06:21.687Z,99.99
2019-02-06T04:07:21.629Z,99.99
2019-02-06T04:08:21.576Z,99.99
2019-02-06T04:09:21.566Z,99.99
2019-02-06T04:10:21.455Z,99.99
2019-02-06T04:11:21.401Z,99.99
2019-02-06T04:12:21.348Z,99.99
2019-02-06T04:13:21.317Z,99.99
2019-02-06T04:14:21.220Z,99.99
2019-02-06T04:15:21.198Z,99.99
2019-02-06T04:16:21.111Z,99.99
2019-02-06T04:17:21.066Z,99.99
2019-02-06T04:18:20.995Z,99.99
2019-02-06T04:19:20.944Z,99.99
2019-02-06T04:20:20.979Z,99.99
2019-02-06T04:21:20.818Z,99.99
2019-02-06T04:22:20.768Z,99.99
2019-02-06T04:23:20.737Z,99.99
2019-02-06T04:24:20.722Z,99.99
2019-02-06T04:25:20.624Z,99.99
2019-02-06T04:26:20.536Z,99.99
2019-02-06T04:27:20.489Z,99.99
2019-02-06T04:28:20.427Z,99.99
2019-02-06T04:29:20.369Z,99.99
2019-02-06T04:30:20.369Z,99.99
2019-02-06T04:31:20.258Z,99.99
2019-02-06T04:32:23.288Z,99.99
2019-02-06T04:33:20.137Z,99.99
2019-02-06T04:34:20.073Z,99.99
2019-02-06T04:35:20.060Z,99.99
2019-02-06T04:36:19.963Z,99.99
2019-02-06T04:37:19.903Z,99.99
2019-02-06T04:38:19.856Z,99.99
2019-02-06T04:39:19.813Z,99.99
2019-02-06T04:40:19.775Z,99.99
2019-02-06T04:41:19.666Z,99.99
2019-02-06T04:42:19.614Z,99.99
2019-02-06T04:43:19.556Z,99.99
2019-02-06T04:44:19.514Z,99.99
2019-02-06T04:45:19.495Z,99.99
2019-02-06T04:46:19.392Z,99.99
2019-02-06T04:47:19.350Z,99.99
2019-02-06T04:48:19.276Z,99.99
2019-02-06T04:49:19.214Z,99.99
2019-02-06T04:50:19.194Z,99.99
2019-02-06T04:51:19.112Z,99.99
2019-02-06T04:52:19.106Z,99.99
2019-02-06T04:53:18.986Z,99.99
2019-02-06T04:54:18.923Z,99.99
2019-02-06T04:55:18.919Z,99.99
2019-02-06T04:56:18.829Z,99.99
2019-02-06T04:57:18.749Z,99.99
2019-02-06T04:58:18.715Z,99.99
2019-02-06T04:59:18.658Z,99.99
2019-02-06T05:00:18.654Z,99.99
2019-02-06T05:01:18.543Z,99.99
2019-02-06T05:02:18.464Z,99.99
2019-02-06T05:03:18.401Z,99.99
2019-02-06T05:04:18.355Z,99.99
2019-02-06T05:05:18.309Z,99.99
2019-02-06T05:06:18.262Z,99.99
2019-02-06T05:07:19.649Z,99.99
2019-02-06T05:08:18.192Z,99.99
2019-02-06T05:09:18.055Z,99.99
2019-02-06T05:10:18.005Z,99.99
2019-02-06T05:11:17.962Z,99.99
2019-02-06T05:12:17.928Z,99.99
2019-02-06T05:13:17.837Z,99.99
2019-02-06T05:14:17.767Z,99.99
2019-02-06T05:15:17.762Z,99.99
2019-02-06T05:16:17.713Z,99.99
2019-02-06T05:17:17.616Z,99.99
2019-02-06T05:18:17.556Z,99.99
2019-02-06T05:19:17.500Z,99.99
2019-02-06T05:20:17.423Z,99.99
2019-02-06T05:21:17.447Z,99.99
2019-02-06T05:22:17.363Z,99.99
2019-02-06T05:23:17.254Z,99.99
2019-02-06T05:24:17.241Z,99.99
2019-02-06T05:25:17.152Z,99.99
2019-02-06T05:26:17.106Z,99.99
2019-02-06T05:27:17.045Z,99.99
2019-02-06T05:28:18.249Z,99.99
2019-02-06T05:29:16.912Z,99.99
2019-02-06T05:30:16.862Z,99.99
2019-02-06T05:31:16.850Z,99.99
2019-02-06T05:32:16.736Z,99.99
2019-02-06T05:33:16.705Z,99.99
2019-02-06T05:34:16.643Z,99.99
2019-02-06T05:35:16.585Z,99.99
2019-02-06T05:36:16.541Z,99.99
2019-02-06T05:37:16.471Z,99.99
2019-02-06T05:38:16.400Z,99.99
2019-02-06T05:39:16.352Z,99.99
2019-02-06T05:40:16.283Z,99.99
2019-02-06T05:41:16.261Z,99.99
2019-02-06T05:42:16.184Z,99.99
2019-02-06T05:43:16.115Z,99.99
2019-02-06T05:44:16.054Z,99.99
2019-02-06T05:45:16.043Z,99.99
2019-02-06T05:46:15.963Z,99.99
2019-02-06T05:47:15.888Z,99.99
2019-02-06T05:48:15.939Z,99.99
2019-02-06T05:49:15.879Z,99.99
2019-02-06T05:50:15.721Z,99.99
2019-02-06T05:51:15.697Z,99.99
2019-02-06T05:52:15.591Z,99.99
2019-02-06T05:53:15.583Z,99.99
2019-02-06T05:54:15.483Z,99.99
2019-02-06T05:55:15.419Z,99.99
2019-02-06T05:56:15.395Z,99.99
2019-02-06T05:57:15.307Z,99.99
2019-02-06T05:58:15.242Z,99.99
2019-02-06T05:59:15.181Z,99.99
2019-02-06T06:00:15.136Z,99.99
2019-02-06T06:01:15.106Z,99.99
2019-02-06T06:02:15.013Z,99.99
2019-02-06T06:03:14.960Z,99.99
2019-02-06T06:04:14.898Z,99.99
2019-02-06T06:05:14.864Z,99.99
2019-02-06T06:06:14.820Z,99.99
2019-02-06T06:07:14.739Z,99.99
2019-02-06T06:08:14.668Z,99.99
2019-02-06T06:09:14.654Z,99.99
2019-02-06T06:10:14.556Z,99.99
2019-02-06T06:11:14.546Z,99.99
2019-02-06T06:12:14.442Z,99.99
2019-02-06T06:13:14.399Z,99.99
2019-02-06T06:14:14.331Z,99.99
2019-02-06T06:15:14.272Z,99.99
2019-02-06T06:16:14.289Z,99.99
2019-02-06T06:17:14.159Z,99.99
2019-02-06T06:18:14.107Z,99.99
2019-02-06T06:19:14.053Z,99.99
2019-02-06T06:20:14.028Z,99.99
2019-02-06T06:21:13.920Z,99.99
2019-02-06T06:22:13.929Z,99.99
2019-02-06T06:23:13.801Z,99.99
2019-02-06T06:24:13.762Z,99.99
2019-02-06T06:25:13.757Z,99.99
2019-02-06T06:26:13.636Z,99.99
2019-02-06T06:27:13.617Z,99.99
2019-02-06T06:28:13.536Z,99.99
2019-02-06T06:29:13.454Z,99.99
2019-02-06T06:30:13.509Z,99.99
2019-02-06T06:31:13.341Z,99.99
2019-02-06T06:32:13.343Z,99.99
2019-02-06T06:33:13.238Z,99.99
2019-02-06T06:34:13.219Z,99.99
2019-02-06T06:35:13.120Z,99.99
2019-02-06T06:36:13.069Z,99.99
2019-02-06T06:37:13.024Z,99.99
2019-02-06T06:38:12.948Z,99.99
2019-02-06T06:39:12.884Z,99.99
2019-02-06T06:40:12.841Z,99.99
2019-02-06T06:41:12.857Z,99.99
2019-02-06T06:42:12.766Z,99.99
2019-02-06T06:43:15.963Z,99.99
2019-02-06T06:44:12.628Z,99.99
2019-02-06T06:45:12.600Z,99.99
2019-02-06T06:46:12.484Z,99.99
2019-02-06T06:47:12.475Z,99.99
2019-02-06T06:48:12.590Z,99.99
2019-02-06T06:49:12.343Z,99.99
2019-02-06T06:50:12.310Z,99.99
2019-02-06T06:51:12.192Z,99.99
2019-02-06T06:52:12.174Z,99.99
2019-02-06T06:53:12.086Z,99.99
2019-02-06T06:54:12.032Z,99.99
2019-02-06T06:55:12.002Z,99.99
2019-02-06T06:56:11.913Z,99.99
2019-02-06T06:57:12.464Z,99.99
2019-02-06T06:58:11.837Z,99.99
2019-02-06T06:59:11.744Z,99.99
2019-02-06T07:00:11.681Z,99.99
2019-02-06T07:01:11.637Z,99.99
2019-02-06T07:02:11.599Z,99.99
2019-02-06T07:03:11.498Z,99.99
2019-02-06T07:04:11.458Z,99.99
2019-02-06T07:05:11.396Z,99.99
2019-02-06T07:06:11.353Z,99.99
2019-02-06T07:07:11.333Z,99.99
2019-02-06T07:08:13.390Z,99.99
2019-02-06T07:09:11.168Z,99.99
2019-02-06T07:10:12.292Z,99.99
2019-02-06T07:11:11.042Z,99.99
2019-02-06T07:12:10.991Z,99.99
2019-02-06T07:13:10.971Z,99.99
2019-02-06T07:14:10.895Z,99.99
2019-02-06T07:15:10.816Z,99.99
2019-02-06T07:16:10.827Z,99.99
2019-02-06T07:17:10.713Z,99.99
2019-02-06T07:18:10.691Z,99.99
2019-02-06T07:19:10.591Z,99.99
2019-02-06T07:20:10.555Z,99.99
2019-02-06T07:21:10.575Z,99.99
2019-02-06T07:22:10.415Z,99.99
2019-02-06T07:23:10.379Z,99.99
2019-02-06T07:24:10.335Z,99.99
2019-02-06T07:25:10.250Z,99.99
2019-02-06T07:26:10.186Z,99.99
2019-02-06T07:27:10.172Z,99.99
2019-02-06T07:28:10.096Z,99.99
2019-02-06T07:29:10.019Z,99.99
2019-02-06T07:30:09.957Z,99.99
2019-02-06T07:31:09.905Z,99.99
2019-02-06T07:32:09.848Z,99.99
2019-02-06T07:33:09.810Z,99.99
2019-02-06T07:34:09.731Z,99.99
2019-02-06T07:35:09.669Z,99.99
2019-02-06T07:36:09.613Z,99.99
2019-02-06T07:37:09.553Z,99.99
2019-02-06T07:38:16.918Z,99.99
2019-02-06T07:39:09.466Z,99.99
2019-02-06T07:40:09.401Z,99.99
2019-02-06T07:41:09.338Z,99.99
2019-02-06T07:42:09.284Z,99.99
2019-02-06T07:43:09.237Z,99.99
2019-02-06T07:44:09.152Z,99.99
2019-02-06T07:45:09.098Z,99.99
2019-02-06T07:46:09.043Z,99.99
2019-02-06T07:47:09.003Z,99.99
2019-02-06T07:48:08.948Z,99.99
2019-02-06T07:49:08.866Z,99.99
2019-02-06T07:50:08.820Z,99.99
2019-02-06T07:51:08.753Z,99.99
2019-02-06T07:52:08.708Z,99.99
2019-02-06T07:53:08.671Z,99.99
2019-02-06T07:54:08.584Z,99.99
2019-02-06T07:55:08.541Z,99.99
2019-02-06T07:56:08.464Z,99.99
2019-02-06T07:57:08.412Z,99.99
2019-02-06T07:58:08.382Z,99.99
2019-02-06T07:59:08.294Z,99.99
2019-02-06T08:00:08.258Z,99.99
2019-02-06T08:01:08.190Z,99.99
2019-02-06T08:02:08.138Z,99.99
2019-02-06T08:03:08.095Z,99.99
2019-02-06T08:04:08.022Z,99.99
2019-02-06T08:05:07.955Z,99.99
2019-02-06T08:06:07.905Z,99.99
2019-02-06T08:07:07.840Z,99.99
2019-02-06T08:08:07.820Z,99.99
2019-02-06T08:09:07.729Z,99.99
2019-02-06T08:10:07.711Z,99.99
2019-02-06T08:11:07.619Z,99.99
2019-02-06T08:12:07.558Z,99.99
2019-02-06T08:13:07.504Z,99.99
2019-02-06T08:14:07.455Z,99.99
2019-02-06T08:15:07.411Z,99.99
2019-02-06T08:16:07.566Z,99.99
2019-02-06T08:17:07.277Z,99.99
2019-02-06T08:18:07.245Z,99.99
2019-02-06T08:19:07.162Z,99.99
2019-02-06T08:20:07.141Z,99.99
2019-02-06T08:21:07.070Z,99.99
2019-02-06T08:22:07.000Z,99.99
2019-02-06T08:23:06.937Z,99.99
2019-02-06T08:24:06.884Z,99.99
2019-02-06T08:25:06.861Z,99.99
2019-02-06T08:26:06.770Z,99.99
2019-02-06T08:27:06.711Z,99.99
2019-02-06T08:28:06.663Z,99.99
2019-02-06T08:29:06.618Z,99.99
2019-02-06T08:30:06.541Z,99.99
2019-02-06T08:31:06.511Z,99.99
2019-02-06T08:32:06.428Z,99.99
2019-02-06T08:33:06.384Z,99.99
2019-02-06T08:34:06.315Z,99.99
2019-02-06T08:35:06.255Z,99.99
2019-02-06T08:36:06.231Z,99.99
2019-02-06T08:37:06.163Z,99.99
2019-02-06T08:38:06.094Z,99.99
2019-02-06T08:39:06.030Z,99.99
2019-02-06T08:40:05.977Z,99.99
2019-02-06T08:41:05.952Z,99.99
2019-02-06T08:42:05.867Z,99.99
2019-02-06T08:43:05.819Z,99.99
2019-02-06T08:44:05.749Z,99.99
2019-02-06T08:45:05.703Z,99.99
2019-02-06T08:46:05.689Z,99.99
2019-02-06T08:47:05.578Z,99.99
2019-02-06T08:48:05.532Z,99.99
2019-02-06T08:49:05.478Z,99.99
2019-02-06T08:50:05.428Z,99.99
2019-02-06T08:51:05.394Z,99.99
2019-02-06T08:52:05.300Z,99.99
2019-02-06T08:53:05.253Z,99.99
2019-02-06T08:54:05.207Z,99.99
2019-02-06T08:55:05.131Z,99.99
2019-02-06T08:56:05.104Z,99.99
2019-02-06T08:57:05.029Z,99.99
2019-02-06T08:58:04.963Z,99.99
2019-02-06T08:59:04.918Z,99.99
2019-02-06T09:00:04.863Z,99.99
2019-02-06T09:01:04.853Z,99.99
2019-02-06T09:02:04.739Z,99.99
2019-02-06T09:03:04.690Z,99.99
2019-02-06T09:04:04.631Z,99.99
2019-02-06T09:05:07.430Z,99.99
2019-02-06T09:06:04.549Z,99.99
2019-02-06T09:07:04.462Z,99.99
2019-02-06T09:08:04.409Z,99.99
2019-02-06T09:09:04.361Z,99.99
2019-02-06T09:10:04.342Z,99.99
2019-02-06T09:11:04.261Z,99.99
2019-02-06T09:12:04.190Z,99.99
2019-02-06T09:13:04.131Z,99.99
2019-02-06T09:14:04.074Z,99.99
2019-02-06T09:15:04.019Z,99.99
2019-02-06T09:16:03.989Z,99.99
2019-02-06T09:17:03.912Z,99.99
2019-02-06T09:18:03.849Z,99.99
2019-02-06T09:19:03.815Z,99.99
2019-02-06T09:20:03.753Z,99.99
2019-02-06T09:21:03.705Z,99.99
2019-02-06T09:22:03.638Z,99.99
2019-02-06T09:23:03.596Z,99.99
2019-02-06T09:24:03.536Z,99.99
2019-02-06T09:25:03.461Z,99.99
2019-02-06T09:26:03.435Z,99.99
2019-02-06T09:27:03.352Z,99.99
2019-02-06T09:28:03.292Z,99.99
2019-02-06T09:29:03.246Z,99.99
2019-02-06T09:30:03.213Z,99.99
2019-02-06T09:31:03.186Z,99.99
2019-02-06T09:32:03.080Z,99.99
2019-02-06T09:33:03.072Z,99.99
2019-02-06T09:34:02.960Z,99.99
2019-02-06T09:35:02.929Z,99.99
2019-02-06T09:36:02.881Z,99.99
2019-02-06T09:37:05.016Z,99.99
2019-02-06T09:38:02.805Z,99.99
2019-02-06T09:39:11.347Z,99.99
2019-02-06T09:40:02.640Z,99.99
2019-02-06T09:41:02.579Z,99.99
2019-02-06T09:42:02.540Z,99.99
2019-02-06T09:43:02.472Z,99.99
2019-02-06T09:44:02.452Z,99.99
2019-02-06T09:45:02.372Z,99.99
2019-02-06T09:46:02.297Z,99.99
2019-02-06T09:47:02.283Z,99.99
2019-02-06T09:48:02.184Z,99.99
2019-02-06T09:49:02.134Z,99.99
2019-02-06T09:50:02.085Z,99.99
2019-02-06T09:51:02.023Z,99.99
2019-02-06T09:52:02.002Z,99.99
2019-02-06T09:53:01.922Z,99.99
2019-02-06T09:54:01.862Z,99.99
2019-02-06T09:55:01.797Z,99.99
2019-02-06T09:56:01.738Z,99.99
2019-02-06T09:57:01.722Z,99.99
2019-02-06T09:58:01.646Z,99.99
2019-02-06T09:59:01.603Z,99.99
2019-02-06T10:00:01.588Z,99.99
2019-02-06T10:01:01.461Z,99.99
2019-02-06T10:02:01.445Z,99.99
2019-02-06T10:03:01.350Z,99.99
2019-02-06T10:04:01.343Z,99.99
2019-02-06T10:05:01.282Z,99.99
2019-02-06T10:06:01.183Z,99.99
2019-02-06T10:07:01.181Z,99.99
2019-02-06T10:08:01.101Z,99.99
2019-02-06T10:09:01.060Z,99.99
2019-02-06T10:10:01.010Z,99.99
2019-02-06T10:11:00.933Z,99.99
2019-02-06T10:12:00.944Z,99.99
2019-02-06T10:13:00.828Z,99.99
2019-02-06T10:14:00.773Z,99.99
2019-02-06T10:15:00.713Z,99.99
2019-02-06T10:16:00.641Z,99.77
2019-02-06T10:17:00.608Z,99.77
2019-02-06T10:18:00.587Z,99.99
2019-02-06T10:19:00.509Z,99.99
2019-02-06T10:20:00.420Z,99.91
2019-02-06T10:21:00.372Z,99.99
2019-02-06T10:22:00.312Z,99.99
2019-02-06T10:23:00.315Z,99.99
2019-02-06T10:24:00.206Z,99.99
2019-02-06T10:25:00.339Z,99.73
2019-02-06T10:26:00.112Z,99.82
2019-02-06T10:27:00.036Z,99.99
2019-02-06T10:27:59.999Z,99.16
2019-02-06T10:28:59.949Z,99.16
2019-02-06T10:29:59.874Z,98.87
2019-02-06T10:30:59.829Z,99.82
2019-02-06T10:31:59.770Z,99.99
2019-02-06T10:32:59.725Z,99.63
2019-02-06T10:33:59.645Z,99.82
2019-02-06T10:34:59.587Z,99.63
2019-02-06T10:35:59.537Z,99.63
2019-02-06T10:36:59.481Z,99.44
2019-02-06T10:37:59.456Z,99.26
2019-02-06T10:38:59.380Z,99.35
2019-02-06T10:39:59.324Z,98.87
2019-02-06T10:40:59.267Z,98.78
2019-02-06T10:41:59.213Z,98.83
2019-02-06T10:42:59.181Z,99.40
2019-02-06T10:43:59.097Z,98.83
2019-02-06T10:44:59.053Z,99.49
2019-02-06T10:45:58.985Z,98.73
2019-02-06T10:46:58.940Z,98.16
2019-02-06T10:47:58.900Z,98.45
2019-02-06T10:48:58.828Z,98.07
2019-02-06T10:49:58.773Z,98.35
2019-02-06T10:50:58.729Z,98.35
2019-02-06T10:51:58.666Z,98.26
2019-02-06T10:52:58.639Z,97.78
2019-02-06T10:53:58.723Z,98.35
2019-02-06T10:54:58.501Z,97.78
2019-02-06T10:55:58.459Z,97.60
2019-02-06T10:56:58.398Z,98.07
2019-02-06T10:57:58.345Z,98.45
2019-02-06T10:58:58.324Z,98.35
2019-02-06T10:59:58.226Z,97.78
2019-02-06T11:00:58.176Z,98.35
2019-02-06T11:01:58.119Z,98.26
2019-02-06T11:02:58.072Z,98.16
2019-02-06T11:03:58.039Z,98.26
2019-02-06T11:04:57.963Z,98.35
2019-02-06T11:05:57.897Z,97.97
2019-02-06T11:06:57.842Z,98.26
2019-02-06T11:07:57.797Z,97.69
2019-02-06T11:08:57.767Z,98.26
2019-02-06T11:09:57.697Z,98.73
2019-02-06T11:10:57.626Z,97.69
2019-02-06T11:11:57.580Z,97.41
2019-02-06T11:12:57.526Z,97.50
2019-02-06T11:13:57.508Z,97.22
2019-02-06T11:14:57.429Z,97.41
2019-02-06T11:15:57.361Z,97.78
2019-02-06T11:16:57.313Z,97.02
2019-02-06T11:17:57.266Z,96.83
2019-02-06T11:18:57.219Z,96.74
2019-02-06T11:19:57.148Z,96.64
2019-02-06T11:20:57.097Z,97.31
2019-02-06T11:21:57.045Z,97.55
2019-02-06T11:22:56.995Z,97.27
2019-02-06T11:23:56.948Z,97.64
2019-02-06T11:24:56.872Z,97.92
2019-02-06T11:25:56.821Z,97.36
2019-02-06T11:26:56.764Z,97.31
2019-02-06T11:27:56.715Z,97.36
2019-02-06T11:28:56.686Z,97.36
2019-02-06T11:29:56.596Z,96.60
2019-02-06T11:30:57.231Z,96.12
2019-02-06T11:31:56.509Z,96.98
2019-02-06T11:32:56.444Z,96.60
2019-02-06T11:33:56.419Z,96.88
2019-02-06T11:34:56.334Z,97.45
2019-02-06T11:35:56.331Z,97.36
2019-02-06T11:36:56.224Z,95.75
2019-02-06T11:37:56.172Z,95.65
2019-02-06T11:38:56.142Z,96.31
2019-02-06T11:39:58.122Z,96.50
2019-02-06T11:40:56.012Z,96.98
2019-02-06T11:41:55.948Z,95.36
2019-02-06T11:42:55.900Z,95.55
2019-02-06T11:43:55.870Z,96.31
2019-02-06T11:44:55.802Z,96.60
2019-02-06T11:45:55.752Z,96.31
2019-02-06T11:46:55.693Z,96.31
2019-02-06T11:47:55.628Z,96.60
2019-02-06T11:48:55.609Z,95.55
2019-02-06T11:49:55.520Z,94.98
2019-02-06T11:50:55.468Z,95.94
2019-02-06T11:51:55.408Z,97.36
2019-02-06T11:52:55.364Z,95.94
2019-02-06T11:53:55.335Z,95.75
2019-02-06T11:54:55.261Z,96.50
2019-02-06T11:55:55.202Z,96.12
2019-02-06T11:56:55.150Z,96.12
2019-02-06T11:57:55.094Z,96.88
2019-02-06T11:58:55.164Z,96.03
2019-02-06T11:59:54.988Z,96.60
2019-02-06T12:00:54.927Z,96.88
2019-02-06T12:01:54.879Z,95.84
2019-02-06T12:02:54.826Z,96.12
2019-02-06T12:03:54.789Z,95.75
2019-02-06T12:04:54.722Z,95.75
2019-02-06T12:05:54.661Z,95.17
2019-02-06T12:06:54.605Z,95.17
2019-02-06T12:07:54.546Z,95.46
2019-02-06T12:08:54.535Z,95.65
2019-02-06T12:09:54.446Z,95.08
2019-02-06T12:10:54.390Z,94.84
2019-02-06T12:11:54.334Z,94.56
2019-02-06T12:12:54.300Z,94.37
2019-02-06T12:13:54.278Z,94.65
2019-02-06T12:14:54.180Z,94.56
2019-02-06T12:15:54.124Z,95.12
2019-02-06T12:16:54.066Z,94.93
2019-02-06T12:17:54.013Z,94.65
2019-02-06T12:18:53.959Z,94.65
2019-02-06T12:19:53.933Z,94.74
2019-02-06T12:20:53.859Z,94.56
2019-02-06T12:21:53.796Z,94.84
2019-02-06T12:22:53.748Z,94.74
2019-02-06T12:23:53.696Z,94.93
2019-02-06T12:24:53.665Z,94.56
2019-02-06T12:25:53.579Z,93.99
2019-02-06T12:26:53.531Z,94.37
2019-02-06T12:27:53.478Z,94.65
2019-02-06T12:28:53.504Z,94.84
2019-02-06T12:29:53.391Z,93.70
2019-02-06T12:30:56.051Z,93.89
2019-02-06T12:31:53.262Z,94.37
2019-02-06T12:32:53.205Z,93.99
2019-02-06T12:33:53.168Z,94.56
2019-02-06T12:34:53.131Z,94.27
2019-02-06T12:35:53.058Z,93.79
2019-02-06T12:36:52.989Z,94.56
2019-02-06T12:37:52.941Z,93.79
2019-02-06T12:38:53.920Z,92.94
2019-02-06T12:39:52.851Z,93.04
2019-02-06T12:40:52.775Z,93.70
2019-02-06T12:41:52.743Z,94.08
2019-02-06T12:42:52.667Z,94.18
2019-02-06T12:43:52.624Z,93.04
2019-02-06T12:44:52.663Z,93.41
2019-02-06T12:45:52.512Z,93.23
2019-02-06T12:46:52.467Z,93.04
2019-02-06T12:47:52.432Z,93.89
2019-02-06T12:48:52.352Z,93.79
2019-02-06T12:49:52.321Z,93.23
2019-02-06T12:50:52.245Z,93.60
2019-02-06T12:51:52.615Z,93.51